Terminal Aerodrome Forecast
Issued by NWS Burlington, VT

Home | Current Version | Previous Version | Text Only | Print | Product List | Glossary On
Versions: 1 2 3 4 5 6 7 8 9 10 11 12 13 14 15
000
FTUS41 KBTV 300500
TAFBTV
TAF
KBTV 300539Z 3006/3106 15004KT P6SM SKC
     FM301400 18010G20KT P6SM SCT200
     FM310000 18012KT P6SM BKN150=

USA.gov is the U.S. government's official web portal to all federal, state and local government web resources and services.